createdAt,value
2017-06-17T00:00:22.985Z,15.60
2017-06-17T00:02:51.135Z,15.60
2017-06-17T00:05:19.310Z,15.50
2017-06-17T00:07:47.472Z,15.50
2017-06-17T00:10:16.382Z,15.60
2017-06-17T00:12:44.576Z,15.60
2017-06-17T00:15:12.725Z,15.70
2017-06-17T00:17:40.889Z,15.60
2017-06-17T00:20:09.841Z,15.50
2017-06-17T00:22:38.022Z,15.50
2017-06-17T00:25:06.192Z,15.50
2017-06-17T00:27:34.364Z,15.40
2017-06-17T00:30:02.540Z,15.40
2017-06-17T00:32:30.709Z,15.40
2017-06-17T00:34:58.882Z,15.40
2017-06-17T00:37:27.031Z,15.50
2017-06-17T00:39:55.174Z,15.40
2017-06-17T00:42:24.139Z,15.20
2017-06-17T00:44:52.764Z,15.20
2017-06-17T00:47:20.914Z,15.20
2017-06-17T00:49:49.854Z,15.30
2017-06-17T00:52:18.000Z,15.20
2017-06-17T00:54:46.150Z,15.20
2017-06-17T00:57:15.090Z,15.20
2017-06-17T00:59:43.256Z,15.20
2017-06-17T01:02:11.405Z,15.20
2017-06-17T01:04:40.350Z,15.30
2017-06-17T01:07:08.515Z,15.30
2017-06-17T01:09:36.674Z,15.40
2017-06-17T01:12:04.869Z,15.40
2017-06-17T01:14:33.038Z,15.30
2017-06-17T01:17:01.208Z,15.30
2017-06-17T01:19:29.416Z,15.20
2017-06-17T01:21:57.590Z,15.20
2017-06-17T01:24:25.740Z,15.20
2017-06-17T01:26:53.949Z,15.30
2017-06-17T01:29:22.089Z,15.20
2017-06-17T01:31:50.233Z,15.20
2017-06-17T01:34:19.197Z,15.10
2017-06-17T01:36:47.365Z,15.00
2017-06-17T01:39:15.530Z,15.10
2017-06-17T01:41:43.707Z,15.10
2017-06-17T01:44:11.849Z,15.10
2017-06-17T01:46:40.019Z,15.10
2017-06-17T01:49:08.212Z,15.10
2017-06-17T01:51:36.366Z,15.00
2017-06-17T01:54:04.514Z,15.10
2017-06-17T01:56:32.713Z,15.30
2017-06-17T01:59:00.867Z,15.30
2017-06-17T02:01:29.034Z,15.30
2017-06-17T02:03:57.234Z,15.30
2017-06-17T02:06:25.389Z,15.20
2017-06-17T02:08:54.320Z,15.00
2017-06-17T02:11:22.522Z,15.00
2017-06-17T02:13:50.685Z,15.10
2017-06-17T02:16:18.849Z,15.10
2017-06-17T02:18:47.360Z,15.20
2017-06-17T02:21:21.126Z,15.30
2017-06-17T02:23:49.330Z,15.20
2017-06-17T02:26:17.478Z,15.20
2017-06-17T02:28:45.644Z,15.10
2017-06-17T02:31:13.847Z,15.20
2017-06-17T02:33:42.024Z,15.10
2017-06-17T02:36:10.174Z,15.10
2017-06-17T02:38:38.379Z,15.10
2017-06-17T02:41:06.542Z,15.10
2017-06-17T02:43:34.721Z,15.10
2017-06-17T02:46:02.917Z,15.20
2017-06-17T02:48:31.065Z,15.20
2017-06-17T02:50:59.217Z,15.20
2017-06-17T02:53:27.399Z,15.10
2017-06-17T02:55:55.545Z,15.10
2017-06-17T02:58:24.476Z,15.10
2017-06-17T03:00:52.657Z,15.10
2017-06-17T03:03:20.821Z,15.10
2017-06-17T03:05:48.965Z,15.20
2017-06-17T03:08:17.926Z,15.20
2017-06-17T03:10:46.078Z,15.10
2017-06-17T03:13:14.218Z,15.20
2017-06-17T03:15:42.424Z,15.10
2017-06-17T03:18:10.565Z,15.10
2017-06-17T03:20:38.737Z,15.00
2017-06-17T03:23:06.918Z,14.90
2017-06-17T03:25:35.070Z,14.80
2017-06-17T03:28:04.004Z,14.90
2017-06-17T03:30:32.180Z,14.90
2017-06-17T03:33:00.329Z,14.90
2017-06-17T03:35:28.477Z,14.80
2017-06-17T03:37:56.654Z,14.90
2017-06-17T03:40:25.588Z,15.00
2017-06-17T03:42:53.757Z,14.90
2017-06-17T03:45:21.945Z,14.80
2017-06-17T03:47:50.087Z,14.90
2017-06-17T03:50:19.018Z,15.00
2017-06-17T03:52:47.214Z,14.90
2017-06-17T03:55:15.386Z,15.00
2017-06-17T03:57:43.550Z,15.10
2017-06-17T04:00:11.744Z,15.20
2017-06-17T04:02:39.911Z,15.10
2017-06-17T04:05:08.080Z,15.10
2017-06-17T04:07:36.250Z,15.20
2017-06-17T04:10:04.424Z,15.20
2017-06-17T04:12:32.587Z,15.10
2017-06-17T04:15:00.784Z,15.10
2017-06-17T04:17:28.952Z,15.10
2017-06-17T04:19:57.119Z,15.20
2017-06-17T04:22:25.289Z,15.30
2017-06-17T04:24:53.448Z,15.40
2017-06-17T04:27:21.594Z,15.30
2017-06-17T04:29:50.555Z,15.40
2017-06-17T04:32:18.713Z,15.40
2017-06-17T04:34:46.881Z,15.50
2017-06-17T04:37:15.073Z,15.60
2017-06-17T04:39:43.240Z,15.60
2017-06-17T04:42:11.385Z,15.70
2017-06-17T04:44:39.602Z,15.60
2017-06-17T04:47:07.757Z,15.70
2017-06-17T04:49:35.918Z,15.80
2017-06-17T04:52:04.105Z,16.00
2017-06-17T04:54:32.255Z,16.00
2017-06-17T04:57:00.405Z,16.00
2017-06-17T04:59:29.368Z,15.90
2017-06-17T05:01:57.539Z,15.90
2017-06-17T05:04:25.692Z,16.10
2017-06-17T05:06:53.889Z,16.20
2017-06-17T05:09:22.045Z,16.20
2017-06-17T05:11:50.196Z,16.50
2017-06-17T05:14:18.392Z,16.40
2017-06-17T05:16:46.561Z,16.40
2017-06-17T05:19:14.978Z,16.60
2017-06-17T05:21:43.313Z,16.70
2017-06-17T05:24:11.476Z,16.80
2017-06-17T05:26:40.409Z,17.00
2017-06-17T05:29:08.606Z,17.00
2017-06-17T05:31:36.761Z,17.10
2017-06-17T05:34:04.927Z,17.00
2017-06-17T05:36:33.107Z,17.00
2017-06-17T05:39:01.280Z,16.80
2017-06-17T05:41:29.448Z,17.00
2017-06-17T05:43:57.613Z,17.20
2017-06-17T05:46:25.762Z,17.40
2017-06-17T05:48:54.672Z,17.40
2017-06-17T05:51:22.870Z,17.40
2017-06-17T05:53:51.033Z,17.40
2017-06-17T05:56:19.200Z,17.50
2017-06-17T05:58:47.396Z,17.60
2017-06-17T06:01:15.561Z,17.60
2017-06-17T06:03:43.736Z,17.80
2017-06-17T06:06:11.939Z,17.80
2017-06-17T06:08:40.104Z,17.80
2017-06-17T06:11:08.267Z,17.60
2017-06-17T06:13:36.456Z,17.50
2017-06-17T06:16:04.601Z,17.40
2017-06-17T06:18:32.765Z,17.50
2017-06-17T06:21:00.964Z,17.70
2017-06-17T06:23:29.116Z,17.70
2017-06-17T06:25:57.280Z,18.00
2017-06-17T06:28:25.449Z,18.30
2017-06-17T06:30:53.594Z,18.70
2017-06-17T06:33:22.506Z,19.30
2017-06-17T06:35:50.685Z,19.20
2017-06-17T06:38:18.825Z,19.50
2017-06-17T06:40:46.969Z,19.80
2017-06-17T06:43:15.160Z,19.80
2017-06-17T06:45:43.313Z,19.70
2017-06-17T06:48:11.454Z,19.70
2017-06-17T06:50:40.421Z,19.70
2017-06-17T06:53:08.584Z,19.60
2017-06-17T06:55:37.565Z,19.40
2017-06-17T06:58:05.745Z,19.40
2017-06-17T07:00:33.892Z,19.70
2017-06-17T07:03:02.067Z,19.90
2017-06-17T07:05:30.578Z,19.90
2017-06-17T07:07:58.745Z,20.00
2017-06-17T07:10:26.908Z,20.30
2017-06-17T07:12:55.097Z,20.40
2017-06-17T07:15:23.845Z,20.50
2017-06-17T07:17:52.005Z,20.60
2017-06-17T07:20:20.985Z,20.90
2017-06-17T07:22:49.129Z,20.80
2017-06-17T07:25:17.301Z,21.10
2017-06-17T07:27:45.518Z,21.20
2017-06-17T07:30:14.483Z,21.60
2017-06-17T07:32:42.632Z,21.50
2017-06-17T07:35:10.811Z,21.70
2017-06-17T07:37:38.985Z,21.90
2017-06-17T07:40:07.148Z,22.00
2017-06-17T07:42:35.321Z,22.30
2017-06-17T07:45:03.467Z,22.20
2017-06-17T07:47:32.396Z,22.30
2017-06-17T07:50:00.593Z,22.30
2017-06-17T07:52:28.757Z,22.50
2017-06-17T07:54:56.919Z,22.70
2017-06-17T07:57:25.109Z,22.80
2017-06-17T07:59:53.253Z,22.60
2017-06-17T08:02:21.417Z,22.60
2017-06-17T08:04:49.908Z,22.70
2017-06-17T08:07:18.057Z,22.80
2017-06-17T08:09:46.983Z,22.80
2017-06-17T08:12:15.175Z,22.80
2017-06-17T08:14:43.322Z,23.20
2017-06-17T08:17:11.473Z,23.90
2017-06-17T08:19:39.672Z,25.00
2017-06-17T08:22:07.821Z,26.30
2017-06-17T08:24:35.999Z,26.70
2017-06-17T08:27:04.255Z,26.60
2017-06-17T08:29:32.422Z,27.00
2017-06-17T08:32:00.566Z,26.60
2017-06-17T08:34:28.764Z,25.80
2017-06-17T08:36:56.919Z,26.10
2017-06-17T08:39:25.071Z,27.30
2017-06-17T08:41:53.247Z,28.30
2017-06-17T08:44:21.394Z,29.20
2017-06-17T08:46:49.541Z,30.20
2017-06-17T08:49:17.736Z,30.70
2017-06-17T08:51:45.882Z,30.80
2017-06-17T08:54:14.032Z,30.90
2017-06-17T08:56:42.230Z,30.30
2017-06-17T08:59:10.404Z,29.60
2017-06-17T09:01:38.555Z,30.80
2017-06-17T09:04:06.737Z,31.00
2017-06-17T09:06:34.905Z,31.30
2017-06-17T09:09:03.069Z,31.80
2017-06-17T09:11:31.274Z,33.80
2017-06-17T09:13:59.438Z,33.80
2017-06-17T09:16:27.582Z,32.40
2017-06-17T09:18:55.777Z,30.40
2017-06-17T09:21:23.925Z,29.50
2017-06-17T09:23:52.069Z,30.00
2017-06-17T09:26:20.240Z,31.10
2017-06-17T09:28:48.401Z,32.10
2017-06-17T09:31:16.553Z,30.50
2017-06-17T09:33:44.728Z,29.60
2017-06-17T09:36:12.879Z,29.40
2017-06-17T09:38:41.030Z,30.40
2017-06-17T09:41:09.982Z,31.60
2017-06-17T09:43:38.148Z,31.60
2017-06-17T09:46:06.292Z,31.60
2017-06-17T09:48:34.476Z,32.40
2017-06-17T09:51:02.637Z,31.90
2017-06-17T09:53:30.790Z,30.40
2017-06-17T09:55:58.975Z,29.60
2017-06-17T09:58:27.904Z,31.70
2017-06-17T10:00:56.047Z,31.70
2017-06-17T10:03:24.991Z,33.90
2017-06-17T10:05:53.154Z,33.80
2017-06-17T10:08:21.316Z,35.00
2017-06-17T10:10:49.599Z,35.00
2017-06-17T10:13:17.778Z,33.50
2017-06-17T10:15:45.975Z,33.30
2017-06-17T10:18:14.144Z,32.20
2017-06-17T10:20:47.886Z,32.80
2017-06-17T10:23:16.117Z,32.70
2017-06-17T10:25:44.282Z,32.10
2017-06-17T10:28:12.428Z,30.20
2017-06-17T10:30:40.603Z,29.10
2017-06-17T10:33:08.785Z,29.80
2017-06-17T10:35:36.948Z,30.80
2017-06-17T10:38:05.128Z,31.30
2017-06-17T10:40:38.389Z,32.60
2017-06-17T10:43:06.571Z,32.70
2017-06-17T10:45:35.517Z,32.90
2017-06-17T10:48:03.725Z,32.90
2017-06-17T10:50:31.895Z,32.80
2017-06-17T10:53:00.065Z,33.80
2017-06-17T10:55:28.228Z,33.50
2017-06-17T10:57:56.419Z,32.40
2017-06-17T11:00:24.566Z,31.40
2017-06-17T11:02:52.725Z,31.10
2017-06-17T11:05:20.898Z,32.10
2017-06-17T11:07:49.042Z,32.00
2017-06-17T11:10:17.959Z,29.50
2017-06-17T11:12:46.156Z,29.50
2017-06-17T11:15:14.313Z,30.50
2017-06-17T11:17:42.464Z,31.50
2017-06-17T11:20:10.650Z,31.50
2017-06-17T11:22:38.794Z,30.80
2017-06-17T11:25:07.724Z,28.80
2017-06-17T11:27:35.906Z,28.80
2017-06-17T11:30:04.047Z,28.40
2017-06-17T11:32:32.194Z,28.20
2017-06-17T11:35:00.382Z,27.10
2017-06-17T11:37:28.533Z,26.80
2017-06-17T11:39:56.706Z,26.70
2017-06-17T11:42:24.889Z,26.80
2017-06-17T11:44:53.036Z,26.50
2017-06-17T11:47:21.207Z,26.30
2017-06-17T11:49:49.416Z,26.00
2017-06-17T11:52:17.595Z,25.80
2017-06-17T11:54:45.764Z,26.10
2017-06-17T11:57:13.945Z,26.30
2017-06-17T11:59:42.116Z,26.10
2017-06-17T12:02:10.298Z,26.30
2017-06-17T12:04:39.256Z,26.70
2017-06-17T12:07:07.405Z,26.70
2017-06-17T12:09:35.576Z,26.40
2017-06-17T12:12:03.758Z,26.20
2017-06-17T12:14:31.917Z,25.80
2017-06-17T12:17:00.085Z,25.80
2017-06-17T12:19:28.263Z,25.90
2017-06-17T12:21:56.431Z,25.80
2017-06-17T12:24:25.372Z,25.80
2017-06-17T12:26:53.563Z,25.80
2017-06-17T12:29:21.725Z,25.90
2017-06-17T12:31:49.869Z,25.90
2017-06-17T12:34:18.064Z,25.60
2017-06-17T12:36:46.215Z,25.70
2017-06-17T12:39:14.387Z,25.20
2017-06-17T12:41:42.566Z,24.80
2017-06-17T12:44:10.725Z,24.80
2017-06-17T12:46:38.883Z,25.00
2017-06-17T12:49:07.838Z,24.60
2017-06-17T12:51:35.985Z,24.60
2017-06-17T12:54:04.161Z,24.90
2017-06-17T12:56:32.345Z,25.10
2017-06-17T12:59:00.519Z,25.20
2017-06-17T13:01:28.665Z,25.20
2017-06-17T13:03:56.845Z,24.80
2017-06-17T13:06:25.013Z,24.80
2017-06-17T13:08:53.157Z,24.60
2017-06-17T13:11:21.354Z,24.50
2017-06-17T13:13:50.267Z,25.00
2017-06-17T13:16:18.440Z,25.00
2017-06-17T13:18:46.649Z,25.00
2017-06-17T13:21:14.844Z,25.10
2017-06-17T13:23:43.022Z,25.30
2017-06-17T13:26:11.230Z,25.20
2017-06-17T13:28:39.400Z,25.00
2017-06-17T13:31:07.581Z,24.80
2017-06-17T13:33:35.762Z,24.70
2017-06-17T13:36:03.907Z,24.60
2017-06-17T13:38:32.829Z,24.70
2017-06-17T13:41:01.010Z,24.70
2017-06-17T13:43:29.157Z,25.00
2017-06-17T13:45:57.302Z,25.10
2017-06-17T13:48:25.494Z,25.40
2017-06-17T13:50:54.427Z,26.00
2017-06-17T13:53:22.574Z,26.00
2017-06-17T13:55:51.518Z,26.10
2017-06-17T13:58:19.685Z,26.00
2017-06-17T14:00:47.860Z,25.80
2017-06-17T14:03:16.038Z,25.60
2017-06-17T14:05:44.208Z,25.80
2017-06-17T14:08:12.384Z,26.10
2017-06-17T14:10:40.562Z,26.30
2017-06-17T14:13:08.735Z,26.30
2017-06-17T14:15:36.908Z,26.10
2017-06-17T14:18:05.097Z,25.70
2017-06-17T14:20:33.274Z,25.40
2017-06-17T14:23:01.440Z,25.40
2017-06-17T14:25:29.625Z,25.20
2017-06-17T14:27:57.785Z,25.00
2017-06-17T14:30:25.952Z,25.00
2017-06-17T14:32:54.144Z,24.80
2017-06-17T14:35:22.307Z,24.80
2017-06-17T14:37:50.474Z,24.70
2017-06-17T14:40:18.646Z,24.80
2017-06-17T14:42:46.823Z,24.90
2017-06-17T14:45:14.995Z,24.80
2017-06-17T14:47:43.547Z,24.80
2017-06-17T14:50:12.480Z,24.70
2017-06-17T14:52:40.638Z,24.70
2017-06-17T14:55:08.839Z,24.70
2017-06-17T14:57:37.025Z,24.60
2017-06-17T15:00:05.174Z,24.60
2017-06-17T15:02:33.349Z,24.70
2017-06-17T15:05:01.631Z,24.70
2017-06-17T15:07:31.004Z,24.80
2017-06-17T15:09:59.204Z,24.60
2017-06-17T15:12:27.355Z,24.50
2017-06-17T15:14:55.531Z,24.50
2017-06-17T15:17:24.532Z,24.50
2017-06-17T15:19:52.689Z,24.50
2017-06-17T15:22:21.640Z,24.40
2017-06-17T15:24:49.815Z,24.30
2017-06-17T15:27:17.978Z,24.10
2017-06-17T15:29:46.159Z,24.30
2017-06-17T15:32:14.339Z,24.30
2017-06-17T15:34:42.495Z,24.40
2017-06-17T15:37:10.674Z,24.20
2017-06-17T15:39:38.882Z,24.30
2017-06-17T15:42:07.042Z,24.50
2017-06-17T15:44:35.994Z,24.40
2017-06-17T15:47:06.009Z,24.40
2017-06-17T15:49:34.208Z,24.10
2017-06-17T15:52:04.150Z,24.00
2017-06-17T15:54:37.724Z,23.80
2017-06-17T15:57:06.132Z,23.70
2017-06-17T15:59:34.330Z,23.70
2017-06-17T16:02:03.370Z,23.90
2017-06-17T16:04:31.618Z,24.00
2017-06-17T16:06:59.859Z,23.80
2017-06-17T16:09:28.091Z,23.90
2017-06-17T16:11:56.260Z,23.80
2017-06-17T16:14:24.518Z,23.90
2017-06-17T16:16:52.676Z,24.00
2017-06-17T16:19:20.894Z,24.10
2017-06-17T16:21:49.156Z,24.00
2017-06-17T16:24:17.307Z,24.00
2017-06-17T16:26:46.350Z,24.10
2017-06-17T16:29:14.536Z,24.00
2017-06-17T16:31:43.493Z,24.10
2017-06-17T16:34:11.642Z,24.10
2017-06-17T16:36:39.880Z,24.00
2017-06-17T16:39:09.481Z,24.20
2017-06-17T16:41:38.421Z,23.90
2017-06-17T16:44:07.430Z,23.90
2017-06-17T16:46:35.583Z,23.60
2017-06-17T16:49:03.750Z,23.50
2017-06-17T16:51:31.949Z,23.50
2017-06-17T16:54:00.310Z,23.30
2017-06-17T16:56:29.750Z,23.30
2017-06-17T16:58:57.928Z,23.30
2017-06-17T17:01:26.095Z,23.20
2017-06-17T17:03:54.233Z,23.00
2017-06-17T17:06:22.434Z,22.80
2017-06-17T17:08:50.628Z,22.90
2017-06-17T17:11:18.845Z,22.80
2017-06-17T17:13:47.040Z,22.90
2017-06-17T17:16:15.186Z,22.70
2017-06-17T17:18:44.097Z,22.40
2017-06-17T17:21:12.284Z,22.40
2017-06-17T17:23:40.444Z,22.30
2017-06-17T17:26:08.643Z,22.20
2017-06-17T17:28:36.858Z,22.20
2017-06-17T17:31:05.023Z,22.10
2017-06-17T17:33:33.172Z,22.10
2017-06-17T17:36:01.350Z,22.20
2017-06-17T17:38:29.616Z,22.20
2017-06-17T17:40:57.865Z,22.20
2017-06-17T17:43:26.061Z,22.10
2017-06-17T17:45:54.232Z,22.00
2017-06-17T17:48:22.405Z,22.00
2017-06-17T17:50:50.581Z,22.00
2017-06-17T17:53:18.876Z,21.90
2017-06-17T17:55:47.043Z,21.90
2017-06-17T17:58:15.222Z,21.90
2017-06-17T18:00:43.373Z,21.90
2017-06-17T18:03:11.527Z,22.00
2017-06-17T18:05:40.609Z,22.10
2017-06-17T18:08:08.772Z,22.10
2017-06-17T18:10:36.970Z,22.00
2017-06-17T18:13:05.959Z,22.10
2017-06-17T18:15:34.914Z,22.20
2017-06-17T18:18:03.082Z,22.10
2017-06-17T18:20:31.308Z,22.10
2017-06-17T18:23:00.236Z,22.00
2017-06-17T18:25:28.452Z,22.00
2017-06-17T18:27:56.626Z,21.80
2017-06-17T18:30:24.884Z,21.80
2017-06-17T18:32:53.082Z,21.80
2017-06-17T18:35:21.300Z,21.70
2017-06-17T18:37:50.228Z,21.60
2017-06-17T18:40:18.381Z,21.50
2017-06-17T18:42:46.644Z,21.60
2017-06-17T18:45:14.797Z,21.70
2017-06-17T18:47:43.718Z,21.90
2017-06-17T18:50:11.915Z,21.90
2017-06-17T18:52:40.088Z,21.80
2017-06-17T18:55:08.270Z,21.70
2017-06-17T18:57:36.465Z,21.70
2017-06-17T19:00:04.621Z,21.70
2017-06-17T19:02:32.787Z,21.50
2017-06-17T19:05:00.990Z,21.50
2017-06-17T19:07:29.173Z,21.40
2017-06-17T19:09:57.329Z,21.40
2017-06-17T19:12:25.554Z,21.40
2017-06-17T19:14:53.758Z,21.50
2017-06-17T19:17:21.932Z,21.40
2017-06-17T19:19:50.121Z,21.30
2017-06-17T19:22:18.264Z,21.20
2017-06-17T19:24:46.429Z,21.00
2017-06-17T19:27:14.626Z,20.80
2017-06-17T19:29:42.777Z,20.70
2017-06-17T19:32:10.940Z,20.70
2017-06-17T19:34:39.919Z,20.70
2017-06-17T19:37:08.854Z,20.70
2017-06-17T19:39:37.020Z,20.70
2017-06-17T19:42:05.216Z,20.70
2017-06-17T19:44:33.413Z,20.60
2017-06-17T19:47:01.580Z,20.60
2017-06-17T19:49:29.761Z,20.60
2017-06-17T19:51:57.955Z,20.60
2017-06-17T19:54:26.890Z,20.40
2017-06-17T19:56:55.074Z,20.40
2017-06-17T19:59:23.227Z,20.30
2017-06-17T20:01:51.373Z,20.20
2017-06-17T20:04:20.372Z,20.00
2017-06-17T20:06:49.315Z,20.10
2017-06-17T20:09:17.465Z,20.10
2017-06-17T20:11:45.664Z,20.10
2017-06-17T20:14:13.817Z,20.00
2017-06-17T20:16:41.961Z,19.80
2017-06-17T20:19:10.906Z,19.60
2017-06-17T20:21:44.514Z,19.60
2017-06-17T20:24:18.213Z,19.60
2017-06-17T20:26:46.369Z,19.60
2017-06-17T20:29:14.518Z,19.70
2017-06-17T20:31:43.466Z,19.70
2017-06-17T20:34:11.630Z,19.70
2017-06-17T20:36:39.782Z,19.70
2017-06-17T20:39:07.953Z,19.60
2017-06-17T20:41:36.099Z,19.50
2017-06-17T20:44:05.599Z,19.40
2017-06-17T20:46:33.822Z,19.40
2017-06-17T20:49:02.122Z,19.40
2017-06-17T20:51:30.530Z,19.40
2017-06-17T20:53:59.534Z,19.50
2017-06-17T20:56:27.975Z,19.50
2017-06-17T20:58:56.175Z,19.50
2017-06-17T21:01:24.393Z,19.50
2017-06-17T21:03:52.581Z,19.60
2017-06-17T21:06:20.895Z,19.40
2017-06-17T21:08:49.097Z,19.30
2017-06-17T21:11:17.252Z,19.30
2017-06-17T21:13:45.427Z,19.20
2017-06-17T21:16:13.610Z,19.10
2017-06-17T21:18:41.774Z,19.10
2017-06-17T21:21:09.941Z,19.00
2017-06-17T21:23:38.125Z,19.10
2017-06-17T21:26:06.365Z,19.10
2017-06-17T21:28:34.591Z,19.00
2017-06-17T21:31:02.787Z,19.20
2017-06-17T21:33:31.016Z,19.20
2017-06-17T21:35:59.272Z,19.30
2017-06-17T21:38:28.237Z,19.00
2017-06-17T21:40:56.724Z,19.00
2017-06-17T21:43:25.145Z,19.10
2017-06-17T21:45:53.500Z,19.10
2017-06-17T21:48:21.739Z,19.20
2017-06-17T21:50:49.900Z,19.00
2017-06-17T21:53:19.167Z,19.20
2017-06-17T21:55:48.315Z,19.10
2017-06-17T21:58:16.469Z,19.20
2017-06-17T22:00:45.435Z,19.30
2017-06-17T22:03:13.588Z,19.30
2017-06-17T22:05:41.761Z,19.20
2017-06-17T22:08:09.956Z,19.10
2017-06-17T22:10:38.120Z,19.10
2017-06-17T22:13:06.280Z,19.00
2017-06-17T22:15:34.478Z,18.90
2017-06-17T22:18:02.622Z,18.90
2017-06-17T22:20:30.767Z,18.80
2017-06-17T22:22:58.941Z,18.60
2017-06-17T22:25:27.091Z,18.50
2017-06-17T22:27:55.250Z,18.60
2017-06-17T22:30:23.455Z,18.70
2017-06-17T22:32:51.607Z,18.80
2017-06-17T22:35:19.774Z,18.90
2017-06-17T22:37:47.969Z,18.80
2017-06-17T22:40:16.904Z,18.80
2017-06-17T22:42:45.069Z,18.80
2017-06-17T22:45:13.246Z,18.80
2017-06-17T22:47:41.411Z,18.80
2017-06-17T22:50:09.577Z,18.70
2017-06-17T22:52:37.750Z,18.80
2017-06-17T22:55:05.921Z,18.70
2017-06-17T22:57:34.852Z,18.70
2017-06-17T23:00:03.038Z,18.70
2017-06-17T23:02:31.198Z,18.80
2017-06-17T23:04:59.350Z,18.80
2017-06-17T23:07:27.546Z,18.80
2017-06-17T23:09:55.694Z,18.70
2017-06-17T23:12:23.860Z,18.60
2017-06-17T23:14:52.800Z,18.60
2017-06-17T23:17:20.946Z,18.60
2017-06-17T23:19:49.091Z,18.60
2017-06-17T23:22:18.029Z,18.60
2017-06-17T23:24:46.199Z,18.60
2017-06-17T23:27:14.360Z,18.60
2017-06-17T23:29:42.553Z,18.60
2017-06-17T23:32:10.702Z,18.50
2017-06-17T23:34:38.847Z,18.40
2017-06-17T23:37:07.025Z,18.40
2017-06-17T23:39:35.956Z,18.40
2017-06-17T23:42:04.117Z,18.40
2017-06-17T23:44:32.305Z,18.40
2017-06-17T23:47:00.472Z,18.40
2017-06-17T23:49:28.643Z,18.40
2017-06-17T23:51:56.825Z,18.30
2017-06-17T23:54:24.997Z,18.20
2017-06-17T23:56:53.170Z,18.20
2017-06-17T23:59:21.380Z,18.10
